« Back
NWS Peachtree City, Ga » Text Product » MCN Terminal Aerodrome Forecast


Printer-friendly Version
Current Version              Previous Versions:   1  2  3  4  5  6  7  8  9  

Terminal Aerodrome Forecast

641
FTUS42 KFFC 251133
TAFMCN
TAF
KMCN 251133Z 2512/2612 VRB03KT P6SM SKC
     FM251400 29006KT P6SM SCT045 BKN250
     FM251800 25008KT P6SM VCSH BKN050
     FM260000 25006KT P6SM SCT050 SCT250
     FM260900 07010KT P6SM BKN012=

USA.gov is the U.S. government's official web portal to all federal, state and local government web resources and services.